Aviation Digital Data Service (ADDS)

Output produced by METARs form (0421 UTC 26 June 2019)
found at http://www.aviationweather.gov/metar/data/
 
Forecast for: LIMC (MILANO/MALPENSA , IT)
Text: TAF LIMC 252300Z 2600/2706 VRB05KT CAVOK
Forecast period: 0000 UTC 26 June 2019 to 0600 UTC 27 June 2019
Forecast type: FROM: standard forecast or significant change
Winds: variable direction winds at 6 MPH (5 knots; 2.6 m/s)
Visibility: 6 or more miles 10+ km)
Ceiling: unknown
Clouds: missing
Weather: NSW  (no significant weather)